Terminal Aerodrome Forecast
Issued by NWS

Home | Current Version | Previous Version | Text Only | Print | Product List | Glossary On
Versions: 1 2 3 4 5 6 7 8 9 10 11 12 13 14 15
000
FTUS46 KHNX 201735
TAFMCE
TAF
KMCE 201735Z 2018/2118 VRB04KT 6SM HZ BKN070
     FM210900 07003KT 2SM BR OVC250
     FM211400 12002KT 1/4SM FG VV001
     FM211700 14004KT 2SM BR OVC003=

USA.gov is the U.S. government's official web portal to all federal, state and local government web resources and services.